Time;durP1;ratioP1;P1;durP2;ratioP2;P2;SDS_P1;SDS_P2;PMS_P1;PMS_P2;Temp;Humidity;BMP_temperature;BMP_pressure;BME280_temperature;BME280_humidity;BME280_pressure;Samples;Min_cycle;Max_cycle;Signal;HPM_P1;HPM_P2
2024/01/31 00:02:28;;;;;;;17.33;8.17;;;;;;;5.45;100.00;102147.59;31733854;27;20389;-77
2024/01/31 00:17:30;;;;;;;21.83;8.33;;;;;;;5.30;100.00;102147.44;31698019;27;20067;-75
2024/01/31 00:32:32;;;;;;;14.87;7.13;;;;;;;5.32;100.00;102142.53;31727512;27;20044;-79
2024/01/31 00:47:34;;;;;;;17.87;7.27;;;;;;;5.29;100.00;102132.41;31741187;27;20051;-78
2024/01/31 01:02:40;;;;;;;17.80;8.23;;;;;;;5.22;100.00;102132.94;31707634;27;20056;-76
2024/01/31 01:17:42;;;;;;;17.70;7.73;;;;;;;4.73;100.00;102126.59;31720965;27;20060;-76
2024/01/31 01:32:44;;;;;;;17.53;7.67;;;;;;;4.54;100.00;102123.56;31735048;28;20053;-76
2024/01/31 01:47:50;;;;;;;18.27;8.20;;;;;;;5.41;100.00;102102.81;31722806;28;20134;-76
2024/01/31 02:02:53;;;;;;;15.83;7.63;;;;;;;5.15;100.00;102100.41;31692335;28;20396;-76
2024/01/31 02:17:55;;;;;;;19.07;8.30;;;;;;;4.87;100.00;102081.38;31725376;27;20151;-76
2024/01/31 02:32:57;;;;;;;18.30;8.00;;;;;;;5.04;100.00;102061.56;31731727;27;20163;-77
2024/01/31 02:47:59;;;;;;;23.77;9.37;;;;;;;5.02;100.00;102044.94;31726491;27;20131;-75
2024/01/31 03:03:01;;;;;;;21.03;9.57;;;;;;;4.26;100.00;102037.25;31726363;27;20369;-75
2024/01/31 03:18:03;;;;;;;23.13;9.77;;;;;;;4.57;100.00;102047.59;31735673;27;20131;-76
2024/01/31 03:33:06;;;;;;;23.97;9.60;;;;;;;5.27;100.00;102043.88;31726759;27;20077;-76
2024/01/31 03:48:08;;;;;;;23.30;9.63;;;;;;;5.12;100.00;102025.69;31746434;27;20142;-77
2024/01/31 04:03:10;;;;;;;23.30;9.97;;;;;;;4.94;100.00;102035.09;31744034;27;20048;-76
2024/01/31 04:18:12;;;;;;;22.03;10.17;;;;;;;5.75;100.00;102021.53;31722113;27;20086;-76
2024/01/31 04:33:14;;;;;;;20.53;11.20;;;;;;;5.95;100.00;102046.03;31710170;27;20712;-77
2024/01/31 04:48:16;;;;;;;24.37;9.37;;;;;;;4.81;100.00;102034.25;31735351;27;20051;-75
2024/01/31 05:03:19;;;;;;;23.97;10.73;;;;;;;4.78;100.00;102024.94;31708102;27;20044;-76
2024/01/31 05:18:21;;;;;;;22.43;9.87;;;;;;;4.67;100.00;102031.06;31736400;27;20043;-75
2024/01/31 05:33:23;;;;;;;22.93;10.60;;;;;;;4.86;100.00;102049.41;31719265;28;20079;-75
2024/01/31 05:48:25;;;;;;;17.40;9.13;;;;;;;6.11;100.00;102045.00;31722976;27;20135;-77
2024/01/31 06:03:28;;;;;;;24.37;8.53;;;;;;;5.69;100.00;102016.72;31736159;27;20058;-75
2024/01/31 06:18:34;;;;;;;32.93;11.27;;;;;;;5.22;100.00;102013.69;31736369;27;20056;-76
2024/01/31 06:33:36;;;;;;;29.87;12.57;;;;;;;5.86;100.00;102023.78;31735466;27;20048;-75
2024/01/31 06:48:38;;;;;;;30.47;11.07;;;;;;;5.26;100.00;102012.69;31717898;27;20042;-75
2024/01/31 07:03:40;;;;;;;32.07;12.53;;;;;;;5.14;100.00;102001.91;31751789;27;20087;-77
2024/01/31 07:18:43;;;;;;;27.67;11.93;;;;;;;5.28;100.00;102001.56;31719013;27;20075;-77
2024/01/31 07:33:46;;;;;;;34.57;14.40;;;;;;;5.49;100.00;101989.56;31740022;27;20083;-76
2024/01/31 07:48:48;;;;;;;39.43;15.10;;;;;;;5.97;100.00;102000.66;31711190;28;20043;-75
2024/01/31 08:03:50;;;;;;;33.70;12.87;;;;;;;8.06;100.00;101989.69;31701620;27;20065;-77
2024/01/31 08:18:53;;;;;;;25.77;11.73;;;;;;;8.99;100.00;102003.06;31727812;28;20154;-76
2024/01/31 08:33:55;;;;;;;25.17;12.43;;;;;;;8.07;100.00;101985.84;31723313;27;20144;-75
2024/01/31 08:48:57;;;;;;;33.83;12.67;;;;;;;7.90;100.00;101971.94;31730780;27;20477;-77
2024/01/31 09:04:01;;;;;;;26.77;12.47;;;;;;;8.17;100.00;101962.84;31723415;27;20043;-75
2024/01/31 09:19:03;;;;;;;49.97;13.10;;;;;;;8.06;100.00;101951.03;31697818;27;20050;-74
2024/01/31 09:34:06;;;;;;;30.03;11.70;;;;;;;9.79;100.00;101920.63;31719143;27;20701;-78
2024/01/31 09:49:08;;;;;;;76.17;14.60;;;;;;;11.40;82.67;101890.25;31726038;28;20071;-76
2024/01/31 10:04:10;;;;;;;45.73;12.37;;;;;;;11.35;82.11;101882.47;31721581;28;20059;-78
2024/01/31 10:19:12;;;;;;;30.73;12.70;;;;;;;11.77;70.71;101871.03;31713086;28;20048;-78
2024/01/31 10:34:15;;;;;;;23.70;10.70;;;;;;;11.68;72.14;101856.97;31718043;28;20484;-79
2024/01/31 10:49:21;;;;;;;20.93;9.97;;;;;;;13.16;65.30;101845.47;31727480;27;20047;-78
2024/01/31 11:04:23;;;;;;;18.20;8.17;;;;;;;12.59;61.03;101829.16;31747605;27;20051;-77
2024/01/31 11:19:25;;;;;;;18.97;10.03;;;;;;;11.42;64.41;101818.03;31731228;27;20138;-77
2024/01/31 11:34:28;;;;;;;28.90;12.37;;;;;;;11.25;62.27;101797.75;31725716;27;20047;-75
2024/01/31 11:49:30;;;;;;;24.03;10.57;;;;;;;11.33;62.21;101786.94;31730336;27;20047;-76
2024/01/31 12:04:32;;;;;;;25.70;12.77;;;;;;;11.54;63.30;101776.13;31708381;27;20051;-74
2024/01/31 12:19:34;;;;;;;26.53;11.10;;;;;;;11.21;65.34;101758.91;31711903;27;20112;-75
2024/01/31 12:34:36;;;;;;;27.73;12.27;;;;;;;10.49;68.48;101764.31;31721142;27;20097;-75
2024/01/31 12:49:39;;;;;;;27.03;11.63;;;;;;;11.45;70.53;101759.38;31715908;27;20047;-75
2024/01/31 13:04:41;;;;;;;21.33;9.33;;;;;;;10.34;72.62;101771.59;31722084;27;20105;-79
2024/01/31 13:19:44;;;;;;;23.57;8.57;;;;;;;9.59;74.56;101775.50;31732589;27;20134;-76
2024/01/31 13:34:46;;;;;;;23.37;8.07;;;;;;;9.54;81.24;101756.84;31685568;28;20563;-77
2024/01/31 13:49:48;;;;;;;17.80;8.17;;;;;;;9.22;80.41;101757.25;31708991;28;20052;-78
2024/01/31 14:04:51;;;;;;;16.10;7.63;;;;;;;9.84;75.84;101749.41;31689358;28;20480;-78
2024/01/31 14:19:53;;;;;;;20.47;8.93;;;;;;;8.85;87.29;101742.84;31722699;27;20083;-78
2024/01/31 14:34:56;;;;;;;22.50;8.73;;;;;;;8.63;94.25;101740.97;31733984;27;20050;-80
2024/01/31 14:49:58;;;;;;;22.50;9.70;;;;;;;8.34;99.45;101740.56;31710056;27;20079;-78
2024/01/31 15:05:01;;;;;;;18.20;8.40;;;;;;;7.98;100.00;101738.41;31733534;27;20059;-78
2024/01/31 15:20:04;;;;;;;22.57;10.17;;;;;;;7.83;100.00;101738.13;31741569;27;20486;-80
2024/01/31 15:35:07;;;;;;;24.93;9.90;;;;;;;7.62;100.00;101732.34;31741839;27;20047;-80
2024/01/31 15:50:09;;;;;;;29.03;10.77;;;;;;;7.57;100.00;101735.34;31747295;28;20051;-78
2024/01/31 16:05:12;;;;;;;24.73;11.30;;;;;;;7.57;100.00;101729.94;31724017;27;20063;-77
2024/01/31 16:20:14;;;;;;;31.83;12.40;;;;;;;7.48;100.00;101715.88;31760761;27;20487;-78
2024/01/31 16:35:16;;;;;;;25.07;12.00;;;;;;;7.40;100.00;101704.16;31704313;27;20048;-77
2024/01/31 16:50:20;;;;;;;25.93;12.30;;;;;;;7.19;100.00;101688.31;31729605;27;20423;-79
2024/01/31 17:05:22;;;;;;;28.37;13.70;;;;;;;7.15;100.00;101676.66;31722902;27;20055;-79
2024/01/31 17:20:24;;;;;;;60.47;25.47;;;;;;;6.95;100.00;101658.91;31725033;27;20047;-76
2024/01/31 17:35:29;;;;;;;44.13;21.10;;;;;;;6.77;100.00;101644.28;31707626;28;20513;-75
2024/01/31 17:50:31;;;;;;;22.23;10.20;;;;;;;6.47;100.00;101644.03;31720630;27;20079;-77
2024/01/31 18:05:33;;;;;;;23.83;10.93;;;;;;;6.42;100.00;101633.50;31698964;27;20082;-77
2024/01/31 18:20:36;;;;;;;21.93;10.10;;;;;;;6.45;100.00;101608.53;31738661;27;20523;-76
2024/01/31 18:35:42;;;;;;;23.63;9.00;;;;;;;6.47;100.00;101607.03;31720357;27;20128;-77
2024/01/31 18:50:44;;;;;;;23.57;9.07;;;;;;;6.39;100.00;101591.06;31726003;27;20043;-82
2024/01/31 19:05:47;;;;;;;21.53;8.63;;;;;;;6.52;100.00;101567.44;31799299;27;20077;-78
2024/01/31 19:20:49;;;;;;;23.57;8.50;;;;;;;6.22;100.00;101565.28;31772004;27;20059;-80
2024/01/31 19:35:52;;;;;;;23.30;11.10;;;;;;;6.13;100.00;101545.84;31766919;27;20052;-81
2024/01/31 19:50:56;;;;;;;19.10;8.73;;;;;;;6.44;100.00;101528.72;31751801;27;20051;-77
2024/01/31 20:05:58;;;;;;;23.17;9.60;;;;;;;6.21;100.00;101493.59;31753750;27;20059;-77
2024/01/31 20:21:01;;;;;;;21.47;8.93;;;;;;;6.32;100.00;101489.22;31724825;27;20585;-75
2024/01/31 20:36:03;;;;;;;19.63;8.87;;;;;;;7.21;100.00;101474.59;31718343;27;20519;-82
2024/01/31 20:51:05;;;;;;;23.17;9.30;;;;;;;6.58;100.00;101471.59;31718652;27;20085;-76
2024/01/31 21:06:08;;;;;;;28.90;11.93;;;;;;;6.60;100.00;101451.22;31703812;27;20109;-78
2024/01/31 21:21:10;;;;;;;25.43;10.97;;;;;;;6.49;100.00;101439.44;31735234;27;20048;-77
2024/01/31 21:36:12;;;;;;;20.83;10.47;;;;;;;6.50;100.00;101393.22;31753245;28;20053;-79
2024/01/31 21:51:15;;;;;;;27.30;11.63;;;;;;;6.53;100.00;101396.34;31720070;28;20056;-76
2024/01/31 22:06:21;;;;;;;24.07;10.13;;;;;;;6.63;100.00;101374.91;31697767;28;20059;-75
2024/01/31 22:21:23;;;;;;;27.50;11.73;;;;;;;6.25;100.00;101365.00;31695738;28;20063;-75
2024/01/31 22:36:25;;;;;;;15.60;8.47;;;;;;;6.25;100.00;101343.44;31713598;27;20154;-76
2024/01/31 22:51:28;;;;;;;25.40;11.23;;;;;;;6.07;100.00;101310.00;31736462;27;20126;-76
2024/01/31 23:06:30;;;;;;;26.23;10.63;;;;;;;6.07;100.00;101300.00;31703663;27;20060;-75
2024/01/31 23:21:32;;;;;;;21.00;9.70;;;;;;;6.03;100.00;101292.97;31728574;27;20083;-76
2024/01/31 23:36:34;;;;;;;23.73;9.43;;;;;;;6.17;100.00;101290.53;31719570;27;20050;-76
2024/01/31 23:51:36;;;;;;;20.70;8.90;;;;;;;5.68;100.00;101282.28;31721859;27;20075;-75
